Latest Weather Observations for Roma

IDQ60801

Issued at 10:02 pm EST Thursday 28 July 2016 (issued every 30 minutes, with the page automatically refreshed every 10 minutes)

About weather observations | Map of weather stations | Latest weather observations for QLD | Other Formats
Station Details ID: 043091 Name: ROMA AIRPORT Lat: -26.55 Lon: 148.77 Height: 307.38 m
Data from the previous 72 hours. | See also: Recent months at Roma
Date/Time
EST
Temp
°C
App
Temp
°C
Dew
Point
°C
Rel
Hum
%
Delta-T
°C
Wind Press
QNH
hPa
Press
MSL
hPa
Rain since
9am
mm
Dir  Spd
km/h
Gust
km/h
Spd
kts
Gust
kts
28/10:00pm 5.2 3.5 1.9 79 1.3 CALM 0 0 0 0 1025.5 1025.6 0.0
28/09:30pm 6.4 4.1 2.7 77 1.5 SW 4 6 2 3 1025.3 1025.4 0.0
28/09:00pm 7.3 5.4 2.8 73 1.9 SW 2 6 1 3 1025.3 1025.4 0.0
28/08:30pm 8.1 5.3 3.0 70 2.2 SW 7 9 4 5 1025.2 1025.3 0.0
28/08:00pm 8.2 5.4 2.9 69 2.3 SW 7 9 4 5 1025.3 1025.4 0.0
28/07:30pm 8.5 5.3 2.9 68 2.4 SW 9 9 5 5 1025.0 1025.0 0.0
28/07:00pm 9.1 5.8 2.7 64 2.7 SSW 9 11 5 6 1024.8 1024.8 0.0
28/06:30pm 10.5 6.8 2.4 57 3.5 SSW 11 11 6 6 1024.5 1024.5 0.0
28/06:00pm 12.2 8.5 2.6 52 4.2 S 11 13 6 7 1024.2 1024.2 0.0
28/05:30pm 14.6 10.2 2.5 44 5.5 S 15 19 8 10 1024.1 1024.1 0.0
28/05:00pm 16.4 11.6 2.4 39 6.4 S 17 20 9 11 1023.7 1023.8 0.0
28/04:30pm 17.1 11.7 2.3 37 6.8 SSE 20 28 11 15 1023.4 1023.5 0.0
28/04:00pm 17.3 11.8 2.1 36 6.9 S 20 30 11 16 1023.3 1023.4 0.0
28/03:30pm 17.8 12.7 2.9 37 7.0 S 19 32 10 17 1023.1 1023.2 0.0
28/03:00pm 17.9 12.8 3.0 37 7.0 S 19 33 10 18 1023.3 1023.4 0.0
28/02:30pm 17.8 12.6 3.3 38 6.8 SSE 20 32 11 17 1023.6 1023.7 0.0
28/02:00pm 17.7 12.6 3.2 38 6.8 S 19 28 10 15 1023.8 1023.9 0.0
28/01:30pm 17.6 12.5 3.9 40 6.5 SSW 20 28 11 15 1024.2 1024.2 0.0
28/01:00pm 16.9 10.7 2.1 37 6.7 SSW 24 35 13 19 1024.7 1024.7 0.0
28/12:30pm 16.9 12.3 3.6 41 6.3 S 17 26 9 14 1025.1 1025.2 0.0
28/12:00pm 16.2 10.0 2.2 39 6.3 S 24 35 13 19 1025.6 1025.7 0.0
28/11:30am 16.1 10.0 2.9 41 6.1 S 24 33 13 18 1025.9 1026.0 0.0
28/11:00am 15.8 10.2 3.3 43 5.8 S 22 35 12 19 1026.3 1026.4 0.0
28/10:30am 15.0 9.6 2.5 43 5.7 SSE 20 28 11 15 1026.5 1026.6 0.0
28/10:00am 14.5 8.8 2.7 45 5.3 SSE 22 30 12 16 1026.7 1026.8 0.0
28/09:30am 13.4 9.8 5.1 57 3.9 S 13 24 7 13 1026.9 1027.0 0.0
28/09:00am 11.0 8.2 5.3 68 2.6 S 9 11 5 6 1027.0 1027.1 0.0
28/08:30am 8.9 6.5 5.1 77 1.7 SSW 7 11 4 6 1026.9 1027.0 0.0
28/08:00am 6.6 5.1 4.8 88 0.8 S 2 6 1 3 1026.6 1026.7 0.0
28/07:30am 3.5 1.1 2.0 90 0.6 NNW 4 7 2 4 1026.4 1026.5 0.0
28/07:00am 2.0 -0.3 0.7 91 0.5 NNW 2 6 1 3 1026.0 1026.1 0.0
28/06:30am 1.4 -0.6 0.1 91 0.5 CALM 0 0 0 0 1025.7 1025.8 0.0
28/06:00am 1.2 -2.0 -0.3 90 0.5 N 6 9 3 5 1025.5 1025.6 0.0
28/05:30am 1.8 -1.3 0.2 89 0.6 N 6 7 3 4 1025.1 1025.2 0.0
28/05:00am 2.2 -1.0 0.7 90 0.6 NNE 7 9 4 5 1024.7 1024.7 0.0
28/04:30am 2.1 -0.9 0.5 89 0.6 N 6 9 3 5 1024.5 1024.5 0.0
28/04:00am 2.7 0.9 1.1 89 0.6 CALM 0 0 0 0 1024.2 1024.2 0.0
28/03:30am 2.6 0.7 0.5 86 0.8 CALM 0 0 0 0 1024.4 1024.4 0.0
28/03:00am 2.8 -0.3 0.4 84 0.9 W 6 7 3 4 1024.4 1024.4 0.0
28/02:30am 3.4 0.4 1.0 84 0.9 W 6 7 3 4 1024.4 1024.4 0.0
28/02:00am 4.5 2.9 2.2 85 0.9 CALM 0 0 0 0 1024.4 1024.4 0.0
28/01:30am 4.2 2.4 1.1 80 1.2 CALM 0 0 0 0 1024.4 1024.4 0.0
28/01:00am 5.4 3.8 2.4 81 1.2 CALM 0 0 0 0 1024.3 1024.3 0.0
28/12:30am 6.3 3.8 1.6 72 1.9 SW 4 7 2 4 1024.3 1024.3 0.0
28/12:00am 5.5 2.0 1.1 73 1.8 SW 9 11 5 6 1024.3 1024.3 0.0
 
Date/Time
EST
Temp
°C
App
Temp
°C
Dew
Point
°C
Rel
Hum
%
Delta-T
°C
Wind Press
QNH
hPa
Press
MSL
hPa
Rain since
9am
mm
Dir  Spd
km/h
Gust
km/h
Spd
kts
Gust
kts
27/11:30pm 7.6 3.5 2.3 69 2.2 SW 13 15 7 8 1024.5 1024.5 0.0
27/11:00pm 7.8 3.5 3.3 73 1.9 SW 15 19 8 10 1024.6 1024.6 0.0
27/10:30pm 6.7 3.7 2.0 72 2.0 SW 7 9 4 5 1024.4 1024.4 0.0
27/10:00pm 7.4 4.8 3.1 74 1.8 SW 6 7 3 4 1024.3 1024.3 0.0
27/09:30pm 7.7 4.8 2.6 70 2.2 SW 7 9 4 5 1024.0 1024.0 0.0
27/09:00pm 8.2 5.0 3.1 70 2.2 SW 9 11 5 6 1023.8 1023.9 0.0
27/08:30pm 8.7 5.1 2.9 67 2.5 SW 11 11 6 6 1023.5 1023.6 0.0
27/08:00pm 9.5 5.5 2.8 63 2.9 SW 13 13 7 7 1023.2 1023.3 0.0
27/07:30pm 10.8 6.6 3.6 61 3.2 SW 15 17 8 9 1022.9 1023.0 0.0
27/07:00pm 10.8 7.0 3.8 62 3.1 SW 13 17 7 9 1022.5 1022.6 0.0
27/06:30pm 11.1 7.2 3.2 58 3.5 SW 13 13 7 7 1022.0 1022.0 0.0
27/06:00pm 13.2 10.4 3.0 50 4.6 SW 7 9 4 5 1021.6 1021.6 0.0
27/05:30pm 15.8 11.7 2.2 40 6.2 SW 13 17 7 9 1021.2 1021.2 0.0
27/05:00pm 17.9 12.3 1.4 33 7.5 SW 20 28 11 15 1020.8 1020.8 0.0
27/04:30pm 18.9 13.3 1.0 30 8.1 WSW 20 28 11 15 1020.3 1020.4 0.0
27/04:00pm 19.5 14.1 1.5 30 8.3 WSW 19 24 10 13 1020.0 1020.1 0.0
27/03:30pm 19.5 15.0 1.9 31 8.2 W 15 26 8 14 1019.7 1019.8 0.0
27/03:00pm 19.3 14.8 2.2 32 8.0 SW 15 24 8 13 1019.6 1019.7 0.0
27/02:30pm 19.5 14.7 2.4 32 8.0 SW 17 28 9 15 1019.8 1019.9 0.0
27/02:00pm 19.4 14.2 2.3 32 8.0 WSW 19 28 10 15 1019.9 1020.0 0.0
27/01:30pm 19.0 14.9 2.0 32 7.9 NW 13 17 7 9 1020.1 1020.2 0.0
27/01:00pm 18.7 14.6 2.5 34 7.5 WSW 13 22 7 12 1020.7 1020.7 0.0
27/12:30pm 18.5 13.7 2.4 34 7.5 SSW 17 26 9 14 1021.2 1021.2 0.0
27/12:00pm 17.7 12.9 2.8 37 6.9 SW 17 26 9 14 1021.7 1021.7 0.0
27/11:30am 17.0 12.3 3.3 40 6.4 SW 17 30 9 16 1022.3 1022.3 0.0
27/11:00am 16.3 10.6 2.7 40 6.2 SW 22 30 12 16 1022.5 1022.6 0.0
27/10:30am 16.1 9.7 1.0 36 6.7 SW 24 33 13 18 1022.9 1023.0 0.0
27/10:00am 15.0 10.3 5.2 52 4.7 WSW 19 26 10 14 1022.9 1023.0 0.0
27/09:30am 11.9 8.3 5.1 63 3.2 WSW 13 17 7 9 1023.0 1023.1 0.0
27/09:00am 11.9 9.1 5.1 63 3.2 WSW 9 13 5 7 1023.0 1023.1 0.0
27/08:30am 11.0 8.9 5.7 70 2.5 W 6 9 3 5 1022.9 1023.0 0.0
27/08:00am 9.8 8.7 6.9 82 1.4 W 2 7 1 4 1022.4 1022.5 0.0
27/07:30am 9.3 8.4 6.0 80 1.5 CALM 0 0 0 0 1022.6 1022.7 0.0
27/07:00am 8.4 6.6 5.2 80 1.5 WNW 4 7 2 4 1022.1 1022.1 0.0
27/06:30am 9.3 6.2 5.7 78 1.7 W 11 13 6 7 1021.7 1021.7 0.0
27/06:00am 9.6 6.6 6.0 78 1.7 W 11 13 6 7 1021.3 1021.3 0.0
27/05:30am 9.3 7.7 6.2 81 1.5 WSW 4 11 2 6 1021.1 1021.1 0.0
27/05:00am 9.6 8.6 5.8 77 1.8 CALM 0 0 0 0 1020.6 1020.6 0.0
27/04:30am 9.8 7.8 6.3 79 1.7 N 6 7 3 4 1020.6 1020.6 0.0
27/04:00am 10.2 6.9 6.5 78 1.8 WSW 13 15 7 8 1020.6 1020.6 0.0
27/03:30am 9.7 9.0 7.0 83 1.3 CALM 0 0 0 0 1020.1 1020.2 0.0
27/03:00am 10.2 8.3 6.7 79 1.7 WNW 6 9 3 5 1019.7 1019.8 0.0
27/02:30am 10.3 8.3 7.0 80 1.6 WNW 7 9 4 5 1019.9 1020.0 0.0
27/02:00am 10.4 9.4 7.3 81 1.5 NNE 2 7 1 4 1019.9 1020.0 0.0
27/01:30am 11.0 9.1 6.7 75 2.1 WSW 6 11 3 6 1019.6 1019.7 0.0
27/01:00am 10.8 10.3 7.7 81 1.5 CALM 0 0 0 0 1019.4 1019.4 0.0
27/12:30am 10.9 10.0 7.6 80 1.6 SSE 2 7 1 4 1019.7 1019.8 0.0
27/12:00am 11.0 10.4 7.3 78 1.8 CALM 0 7 0 4 1020.2 1020.3 0.0
 
Date/Time
EST
Temp
°C
App
Temp
°C
Dew
Point
°C
Rel
Hum
%
Delta-T
°C
Wind Press
QNH
hPa
Press
MSL
hPa
Rain since
9am
mm
Dir  Spd
km/h
Gust
km/h
Spd
kts
Gust
kts
26/11:30pm 11.1 10.1 7.2 77 1.9 NNW 2 6 1 3 1020.2 1020.3 0.0
26/11:00pm 11.8 10.7 7.1 73 2.3 SW 2 7 1 4 1020.3 1020.4 0.0
26/10:30pm 11.9 9.5 7.0 72 2.4 W 9 15 5 8 1020.2 1020.3 0.0
26/10:00pm 12.2 10.3 6.5 68 2.7 NNW 6 9 3 5 1019.6 1019.7 0.0
26/09:30pm 11.4 9.6 7.3 76 2.0 NNE 6 15 3 8 1019.5 1019.5 0.0
26/09:00pm 11.8 9.9 6.9 72 2.4 WNW 6 7 3 4 1020.0 1020.1 0.0
26/08:30pm 11.8 9.7 6.7 71 2.5 NW 7 9 4 5 1019.5 1019.5 0.0
26/08:00pm 12.1 10.2 6.6 69 2.7 NNE 6 7 3 4 1019.2 1019.2 0.0
26/07:30pm 12.7 10.1 6.1 64 3.2 N 9 11 5 6 1019.0 1019.0 0.0
26/07:00pm 13.0 11.6 7.2 68 2.9 NNE 4 9 2 5 1019.1 1019.1 0.0
26/06:30pm 13.7 11.7 6.1 60 3.7 NNE 6 7 3 4 1019.2 1019.2 0.0
26/06:00pm 14.0 12.6 5.4 56 4.1 S 2 6 1 3 1019.0 1019.0 0.0
26/05:30pm 14.7 12.3 5.2 53 4.5 SW 7 9 4 5 1018.6 1018.6 0.0
26/05:00pm 15.5 13.4 3.9 46 5.4 SSW 4 7 2 4 1018.2 1018.2 0.0
26/04:30pm 16.2 13.2 2.2 39 6.4 S 7 11 4 6 1018.0 1018.0 0.0
26/04:00pm 16.7 15.0 1.6 36 6.8 CALM 0 0 0 0 1018.0 1018.0 0.0
26/03:30pm 17.1 15.3 1.1 34 7.2 CALM 0 0 0 0 1018.1 1018.1 0.0
26/03:00pm 17.4 14.2 1.0 33 7.3 ESE 7 11 4 6 1018.2 1018.2 0.0
26/02:30pm 18.2 15.3 1.3 32 7.7 NE 6 9 3 5 1018.5 1018.5 0.0
26/02:00pm 17.7 14.2 1.2 33 7.4 E 9 17 5 9 1018.9 1018.9 0.0
26/01:30pm 17.6 13.8 1.6 34 7.3 ESE 11 19 6 10 1019.2 1019.2 0.0
26/01:00pm 16.9 13.9 2.1 37 6.7 ESE 7 17 4 9 1019.7 1019.8 0.0
26/12:30pm 16.5 13.7 3.2 41 6.2 SE 7 13 4 7 1020.2 1020.3 0.0
26/12:00pm 15.8 11.8 2.9 42 5.9 SSE 13 20 7 11 1020.8 1020.8 0.0
26/11:30am 15.0 11.8 2.9 44 5.5 ESE 9 15 5 8 1021.5 1021.5 0.0
26/11:00am 14.5 10.4 2.1 43 5.5 SE 13 17 7 9 1021.9 1021.9 0.0
26/10:30am 14.1 10.6 3.3 48 4.9 SE 11 15 6 8 1021.8 1021.8 0.0
26/10:00am 12.9 10.4 4.6 57 3.9 SE 7 11 4 6 1022.3 1022.3 0.0
26/09:30am 11.8 9.6 5.2 64 3.1 E 6 7 3 4 1022.2 1022.2 0.0
26/09:00am 10.9 8.7 5.2 68 2.6 SSW 6 7 3 4 1022.2 1022.2 0.0
26/08:30am 10.2 9.3 6.0 75 2.0 CALM 0 0 0 0 1022.1 1022.1 0.0
26/08:00am 9.1 7.6 6.7 85 1.1 SW 4 7 2 4 1022.1 1022.1 0.0
26/07:30am 7.7 6.7 5.5 86 1.0 CALM 0 7 0 4 1021.8 1021.8 0.0
26/07:00am 7.8 5.5 5.6 86 1.0 WSW 7 9 4 5 1021.4 1021.4 0.0
26/06:30am 7.5 5.6 5.1 85 1.1 W 4 7 2 4 1021.4 1021.4 0.0
26/06:00am 7.4 4.7 5.4 87 0.9 WSW 9 11 5 6 1021.1 1021.1 0.0
26/05:30am 7.2 6.1 5.2 87 0.9 CALM 0 0 0 0 1020.6 1020.6 0.0
26/05:00am 7.0 5.8 4.7 85 1.0 CALM 0 0 0 0 1020.8 1020.8 0.0
26/04:30am 8.1 7.2 6.2 88 0.9 CALM 0 0 0 0 1020.4 1020.5 0.0
26/04:00am 8.3 7.5 6.4 88 0.9 CALM 0 0 0 0 1020.2 1020.3 0.0
26/03:30am 8.3 7.1 6.3 87 0.9 NNE 2 7 1 4 1020.2 1020.3 0.0
26/03:00am 8.5 7.7 6.3 86 1.0 CALM 0 0 0 0 1020.2 1020.3 0.0
26/02:30am 8.3 7.0 5.9 85 1.1 NW 2 6 1 3 1020.1 1020.2 0.0
26/02:00am 8.2 6.5 5.7 84 1.1 NNW 4 7 2 4 1020.0 1020.1 0.0
26/01:30am 8.7 7.7 5.8 82 1.3 CALM 0 0 0 0 1020.4 1020.5 0.0
26/01:00am 9.1 6.6 4.7 74 2.0 WSW 7 11 4 6 1020.2 1020.3 0.0
26/12:30am 9.3 6.6 5.7 78 1.7 WSW 9 13 5 7 1020.4 1020.5 0.0
26/12:00am 8.9 6.7 5.1 77 1.7 WNW 6 7 3 4 1020.3 1020.4 0.0
 
Date/Time
EST
Temp
°C
App
Temp
°C
Dew
Point
°C
Rel
Hum
%
Delta-T
°C
Wind Press
QNH
hPa
Press
MSL
hPa
Rain since
9am
mm
Dir  Spd
km/h
Gust
km/h
Spd
kts
Gust
kts
25/11:30pm 9.4 7.1 5.6 77 1.8 NW 7 9 4 5 1020.7 1020.7 0.0
25/11:00pm 9.8 7.5 5.6 75 1.9 SSW 7 9 4 5 1020.4 1020.5 0.0
25/10:30pm 9.6 7.5 5.6 76 1.9 S 6 9 3 5 1020.1 1020.2 0.0

Other Formats:

Comma delimited format used in spreadsheet applications
http://www.bom.gov.au/fwo/IDQ60801/IDQ60801.94515.axf

JavaScript Object Notation format (JSON) in row-major order
http://www.bom.gov.au/fwo/IDQ60801/IDQ60801.94515.json